Archival Weather

Heathrow

London, United Kingdom (EGLL)

Report from: Thursday, February 22, 2024 11:50 AM GMT
Current time: Wednesday, April 24, 2024 7:29 PM BST

Current weather – Weather history – Daily summaries
Weather forecast

Present weatherLight rain, recent rain
Temperature8.0°C (46.4°F)
Wind chill5.8°C (42.4°F)
Dew point7.0°C (44.6°F)
Winds 7 kts (3.6 m/s, 8.1 mph) West-Northwest (290°)
Visibility5 mi. (8 km)
Clouds Ceiling: Broken clouds 800 ft. (244 m)
Broken clouds 1,500 ft. (457 m)
Broken clouds 2,900 ft. (884 m)
Altimeter28.91 in.Hg (979 mB)
Relative humidity93 %
Density altitude483 ft. (147 m)
Remarks Fully automated report
Corrected report
Flight conditions Instrument Meteorological Conditions
Raw dataCOR EGLL 221150Z AUTO 29007KT 8000 -RA BKN008/// BKN015/// BKN029/// //////CB 08/07 Q0979 RERA TEMPO 4000 RA
An error has occurred. This application may no longer respond until reloaded. Reload 🗙